Time;durP1;ratioP1;P1;durP2;ratioP2;P2;SDS_P1;SDS_P2;PMS_P1;PMS_P2;Temp;Humidity;BMP_temperature;BMP_pressure;BME280_temperature;BME280_humidity;BME280_pressure;Samples;Min_cycle;Max_cycle;Signal;HPM_P1;HPM_P2
2022/09/06 00:01:15;;;;;;;5.68;4.07;;;;;;;;;;5093173;28;20024;-75
2022/09/06 00:03:41;;;;;;;4.43;3.72;;;;;;;;;;5092820;28;20032;-76
2022/09/06 00:06:08;;;;;;;4.40;3.72;;;;;;;;;;5092974;28;20546;-76
2022/09/06 00:08:34;;;;;;;6.20;4.47;;;;;;;;;;5092609;28;20051;-76
2022/09/06 00:11:00;;;;;;;5.63;3.90;;;;;;;;;;5092964;28;20035;-75
2022/09/06 00:13:26;;;;;;;5.38;3.75;;;;;;;;;;5092695;28;20020;-75
2022/09/06 00:15:53;;;;;;;6.15;3.63;;;;;;;;;;5092573;28;20036;-75
2022/09/06 00:18:19;;;;;;;4.45;4.00;;;;;;;;;;5092600;28;20054;-75
2022/09/06 00:20:45;;;;;;;4.28;3.35;;;;;;;;;;5092502;28;20032;-75
2022/09/06 00:23:11;;;;;;;4.95;4.00;;;;;;;;;;5092636;28;20028;-75
2022/09/06 00:25:37;;;;;;;5.20;3.83;;;;;;;;;;5092330;28;20020;-76
2022/09/06 00:28:05;;;;;;;6.93;4.10;;;;;;;;;;5092499;28;20028;-75
2022/09/06 00:30:32;;;;;;;4.65;3.65;;;;;;;;;;5092156;28;20036;-76
2022/09/06 00:32:58;;;;;;;5.80;3.92;;;;;;;;;;5091812;28;20028;-75
2022/09/06 00:35:25;;;;;;;4.40;4.00;;;;;;;;;;5092070;28;20019;-76
2022/09/06 00:37:51;;;;;;;5.03;3.65;;;;;;;;;;5092194;28;20107;-76
2022/09/06 00:40:18;;;;;;;5.85;4.82;;;;;;;;;;5092422;28;20028;-75
2022/09/06 00:42:44;;;;;;;4.10;3.70;;;;;;;;;;5092147;28;20027;-76
2022/09/06 00:45:11;;;;;;;5.15;4.10;;;;;;;;;;5092215;28;20143;-76
2022/09/06 00:47:39;;;;;;;5.18;3.55;;;;;;;;;;5092096;28;20023;-76
2022/09/06 00:50:07;;;;;;;6.93;4.80;;;;;;;;;;5092282;28;20429;-75
2022/09/06 00:52:33;;;;;;;5.18;4.68;;;;;;;;;;5092068;28;20046;-76
2022/09/06 00:54:59;;;;;;;5.97;4.40;;;;;;;;;;5092477;28;20522;-76
2022/09/06 00:57:27;;;;;;;4.57;4.13;;;;;;;;;;5092388;28;20034;-76
2022/09/06 00:59:55;;;;;;;4.53;4.13;;;;;;;;;;5090746;28;20046;-76
2022/09/06 01:02:21;;;;;;;4.95;3.67;;;;;;;;;;5092108;28;20108;-75
2022/09/06 01:04:48;;;;;;;5.22;4.47;;;;;;;;;;5091918;28;20081;-76
2022/09/06 01:07:20;;;;;;;5.00;4.22;;;;;;;;;;5092128;28;20371;-76
2022/09/06 01:10:05;;;;;;;5.03;4.47;;;;;;;;;;5091972;28;20016;-76
2022/09/06 01:12:31;;;;;;;5.07;4.25;;;;;;;;;;5092030;28;20032;-76
2022/09/06 01:15:04;;;;;;;4.85;4.32;;;;;;;;;;5091850;28;20072;-75
2022/09/06 01:17:49;;;;;;;5.93;4.30;;;;;;;;;;5092097;28;20457;-76
2022/09/06 01:20:15;;;;;;;;;;;;;;;;;;5074090;28;20036;-76
2022/09/06 01:23:00;;;;;;;6.75;4.13;;;;;;;;;;5092195;28;19911;-76
2022/09/06 01:25:43;;;;;;;5.20;4.40;;;;;;;;;;5092119;28;20475;-76
2022/09/06 01:28:09;;;;;;;5.13;4.13;;;;;;;;;;5091890;28;20253;-75
2022/09/06 01:30:37;;;;;;;4.40;3.92;;;;;;;;;;5091740;28;20036;-76
2022/09/06 01:33:07;;;;;;;4.63;4.00;;;;;;;;;;5092173;28;20025;-76
2022/09/06 01:35:37;;;;;;;5.97;4.38;;;;;;;;;;5091676;28;20028;-76
2022/09/06 01:38:04;;;;;;;5.80;5.20;;;;;;;;;;5091961;28;20036;-76
2022/09/06 01:40:34;;;;;;;4.88;4.47;;;;;;;;;;5091632;28;20032;-76
2022/09/06 01:43:00;;;;;;;4.88;4.35;;;;;;;;;;5091757;28;20490;-75
2022/09/06 01:45:59;;;;;;;6.60;4.40;;;;;;;;;;5095094;28;20031;-75
2022/09/06 01:48:44;;;;;;;5.22;4.10;;;;;;;;;;5055243;28;20093;-76
2022/09/06 01:51:16;;;;;;;4.97;4.28;;;;;;;;;;5095562;28;20028;-76
2022/09/06 01:53:42;;;;;;;5.82;3.92;;;;;;;;;;5095489;28;20074;-76
2022/09/06 01:56:18;;;;;;;5.22;4.20;;;;;;;;;;5095633;28;20031;-76
2022/09/06 01:58:50;;;;;;;6.15;4.50;;;;;;;;;;5095387;28;20383;-76
2022/09/06 02:01:20;;;;;;;6.55;4.53;;;;;;;;;;5095449;28;20099;-76
2022/09/06 02:04:04;;;;;;;6.53;4.80;;;;;;;;;;5095047;28;20036;-76
2022/09/06 02:06:30;;;;;;;;;;;;;;;;;;5095537;28;20467;-75
2022/09/06 02:09:00;;;;;;;8.32;6.90;;;;;;;;;;5095324;28;19911;-76
2022/09/06 02:11:27;;;;;;;11.20;9.75;;;;;;;;;;5094854;28;20027;-75
2022/09/06 02:14:04;;;;;;;6.65;5.95;;;;;;;;;;5095314;28;20035;-76
2022/09/06 02:16:31;;;;;;;5.90;4.80;;;;;;;;;;5094577;28;20044;-76
2022/09/06 02:19:06;;;;;;;29.30;22.80;;;;;;;;;;5095049;28;20095;-76
2022/09/06 02:21:32;;;;;;;;;;;;;;;;;;5095437;28;20039;-76
2022/09/06 02:24:00;;;;;;;4.55;3.90;;;;;;;;;;5094871;28;20280;-76
2022/09/06 02:26:28;;;;;;;7.68;4.47;;;;;;;;;;5094806;28;20432;-75
2022/09/06 02:28:54;;;;;;;5.40;4.13;;;;;;;;;;5094704;28;20056;-76
2022/09/06 02:31:39;;;;;;;6.00;4.65;;;;;;;;;;5094532;28;20086;-75
2022/09/06 02:34:06;;;;;;;4.50;4.10;;;;;;;;;;5094720;28;20032;-76
2022/09/06 02:36:32;;;;;;;5.05;4.55;;;;;;;;;;5094636;28;20024;-75
2022/09/06 02:39:01;;;;;;;4.85;3.97;;;;;;;;;;5094407;28;20086;-76
2022/09/06 02:41:29;;;;;;;4.22;3.80;;;;;;;;;;5094549;28;20459;-76
2022/09/06 02:43:56;;;;;;;4.60;3.65;;;;;;;;;;5094467;28;20049;-76
2022/09/06 02:46:23;;;;;;;5.47;4.30;;;;;;;;;;5094538;28;20076;-76
2022/09/06 02:48:49;;;;;;;4.43;3.40;;;;;;;;;;5076064;28;20071;-76
2022/09/06 02:51:15;;;;;;;4.97;4.35;;;;;;;;;;5094476;28;20023;-75
2022/09/06 02:53:41;;;;;;;6.35;4.55;;;;;;;;;;5094352;28;20145;-76
2022/09/06 02:56:08;;;;;;;6.00;4.55;;;;;;;;;;5093088;28;20078;-75
2022/09/06 02:58:34;;;;;;;6.05;4.22;;;;;;;;;;5094136;28;20059;-76
2022/09/06 03:01:00;;;;;;;7.30;4.63;;;;;;;;;;5094090;28;20413;-76
2022/09/06 03:03:27;;;;;;;12.40;11.13;;;;;;;;;;5094205;28;20024;-76
2022/09/06 03:05:53;;;;;;;14.02;11.23;;;;;;;;;;5094061;28;20475;-76
2022/09/06 03:08:20;;;;;;;8.50;5.75;;;;;;;;;;5094022;28;20061;-75
2022/09/06 03:10:50;;;;;;;7.00;4.60;;;;;;;;;;5093991;28;20028;-77
2022/09/06 03:13:16;;;;;;;7.55;4.90;;;;;;;;;;5093954;28;20102;-75
2022/09/06 03:15:42;;;;;;;7.25;4.55;;;;;;;;;;5093716;28;20135;-76
2022/09/06 03:18:08;;;;;;;5.80;4.35;;;;;;;;;;5093577;28;20474;-75
2022/09/06 03:20:34;;;;;;;5.97;4.63;;;;;;;;;;5093769;28;20042;-76
2022/09/06 03:23:00;;;;;;;6.38;4.68;;;;;;;;;;5093734;28;20386;-76
2022/09/06 03:25:26;;;;;;;6.07;5.35;;;;;;;;;;5093712;28;20055;-75
2022/09/06 03:27:52;;;;;;;7.28;5.05;;;;;;;;;;5093810;28;20478;-76
2022/09/06 03:30:18;;;;;;;7.78;5.50;;;;;;;;;;5093213;28;20020;-75
2022/09/06 03:32:44;;;;;;;7.22;6.07;;;;;;;;;;5093486;28;20471;-76
2022/09/06 03:35:11;;;;;;;9.25;7.55;;;;;;;;;;5093254;28;20059;-76
2022/09/06 03:37:37;;;;;;;5.57;5.05;;;;;;;;;;5093370;28;20036;-76
2022/09/06 03:40:05;;;;;;;7.05;4.55;;;;;;;;;;5093319;28;20032;-76
2022/09/06 03:42:31;;;;;;;5.85;4.70;;;;;;;;;;5093217;28;20028;-76
2022/09/06 03:44:57;;;;;;;5.18;4.32;;;;;;;;;;5093526;28;20161;-76
2022/09/06 03:47:23;;;;;;;8.73;5.22;;;;;;;;;;5093117;28;20032;-76
2022/09/06 03:49:50;;;;;;;5.47;4.85;;;;;;;;;;5093250;28;20027;-76
2022/09/06 03:52:16;;;;;;;4.88;4.13;;;;;;;;;;5092977;28;20032;-76
2022/09/06 03:54:42;;;;;;;6.13;5.00;;;;;;;;;;5093195;28;20023;-76
2022/09/06 03:57:09;;;;;;;9.18;4.65;;;;;;;;;;5093020;28;20028;-76
2022/09/06 03:59:35;;;;;;;9.38;5.80;;;;;;;;;;5092931;28;20050;-75
2022/09/06 04:02:02;;;;;;;34.65;25.50;;;;;;;;;;5092937;28;20417;-75
2022/09/06 04:04:28;;;;;;;7.50;4.90;;;;;;;;;;5092685;28;20082;-76
2022/09/06 04:06:54;;;;;;;5.65;4.60;;;;;;;;;;5092830;28;20051;-76
2022/09/06 04:09:20;;;;;;;5.97;4.88;;;;;;;;;;5092706;28;20067;-76
2022/09/06 04:11:46;;;;;;;7.43;5.40;;;;;;;;;;5092758;28;20015;-75
2022/09/06 04:14:12;;;;;;;7.75;4.43;;;;;;;;;;5092601;28;20024;-76
2022/09/06 04:16:39;;;;;;;8.15;5.30;;;;;;;;;;5092617;28;20097;-75
2022/09/06 04:19:05;;;;;;;15.10;11.60;;;;;;;;;;5092784;28;20063;-76
2022/09/06 04:21:31;;;;;;;14.07;9.38;;;;;;;;;;5092294;28;20024;-76
2022/09/06 04:23:57;;;;;;;24.13;21.25;;;;;;;;;;5092698;28;20028;-75
2022/09/06 04:26:23;;;;;;;34.05;26.10;;;;;;;;;;5092202;28;20102;-76
2022/09/06 04:28:49;;;;;;;16.40;14.15;;;;;;;;;;5092317;28;20019;-76
2022/09/06 04:31:15;;;;;;;6.13;5.40;;;;;;;;;;5092408;28;20099;-75
2022/09/06 04:33:41;;;;;;;5.60;4.22;;;;;;;;;;5092351;28;20497;-76
2022/09/06 04:36:08;;;;;;;48.35;36.17;;;;;;;;;;5092408;28;20034;-75
2022/09/06 04:38:37;;;;;;;11.82;9.85;;;;;;;;;;5092007;28;20031;-76
2022/09/06 04:41:03;;;;;;;30.45;26.45;;;;;;;;;;5092380;28;20028;-76
2022/09/06 04:43:29;;;;;;;6.43;4.90;;;;;;;;;;5092258;28;20142;-75
2022/09/06 04:45:55;;;;;;;6.75;4.95;;;;;;;;;;5092436;28;20423;-75
2022/09/06 04:48:22;;;;;;;11.38;6.97;;;;;;;;;;5092191;28;20026;-76
2022/09/06 04:50:48;;;;;;;11.00;5.30;;;;;;;;;;5092182;28;20533;-76
2022/09/06 04:53:14;;;;;;;6.88;5.20;;;;;;;;;;5092285;28;20020;-76
2022/09/06 04:55:40;;;;;;;12.68;6.35;;;;;;;;;;5091924;28;20487;-76
2022/09/06 04:58:06;;;;;;;9.45;6.97;;;;;;;;;;5074121;28;20024;-76
2022/09/06 05:00:33;;;;;;;10.27;6.63;;;;;;;;;;5092163;28;20028;-76
2022/09/06 05:02:59;;;;;;;9.32;6.75;;;;;;;;;;5091977;28;20070;-75
2022/09/06 05:05:25;;;;;;;8.50;6.55;;;;;;;;;;5092020;28;20032;-75
2022/09/06 05:07:54;;;;;;;6.55;5.75;;;;;;;;;;5092097;28;20154;-76
2022/09/06 05:10:22;;;;;;;9.40;6.40;;;;;;;;;;5092015;28;20382;-75
2022/09/06 05:12:51;;;;;;;6.65;5.95;;;;;;;;;;5091284;28;20479;-76
2022/09/06 05:15:18;;;;;;;7.75;6.30;;;;;;;;;;5083768;28;20055;-76
2022/09/06 05:17:44;;;;;;;9.48;6.43;;;;;;;;;;5071120;28;20029;-75
2022/09/06 05:20:10;;;;;;;7.93;6.43;;;;;;;;;;5074475;28;20028;-77
2022/09/06 05:22:37;;;;;;;8.45;6.30;;;;;;;;;;5094042;28;20063;-76
2022/09/06 05:25:03;;;;;;;7.82;6.68;;;;;;;;;;5096083;28;20020;-76
2022/09/06 05:27:29;;;;;;;7.82;6.43;;;;;;;;;;5088199;28;20028;-76
2022/09/06 05:29:55;;;;;;;6.65;5.35;;;;;;;;;;5072716;28;20442;-77
2022/09/06 05:32:21;;;;;;;7.18;6.57;;;;;;;;;;5066983;28;20116;-79
2022/09/06 05:35:15;;;;;;;13.85;8.68;;;;;;;;;;5079300;28;20039;-78
2022/09/06 05:37:41;;;;;;;12.05;7.45;;;;;;;;;;5061168;28;20032;-77
2022/09/06 05:40:37;;;;;;;12.10;7.20;;;;;;;;;;5070209;28;20056;-77
2022/09/06 05:43:03;;;;;;;10.30;8.20;;;;;;;;;;5074194;28;20025;-78
2022/09/06 05:45:30;;;;;;;11.05;6.32;;;;;;;;;;5071827;28;20043;-77
2022/09/06 05:51:00;;;;;;;7.18;6.32;;;;;;;;;;5075310;28;20046;-78
2022/09/06 05:53:26;;;;;;;7.57;6.55;;;;;;;;;;5065800;28;20032;-80
2022/09/06 05:55:52;;;;;;;7.63;6.28;;;;;;;;;;5072659;28;20040;-77
2022/09/06 05:58:19;;;;;;;7.13;6.10;;;;;;;;;;5073393;28;20056;-77
2022/09/06 06:00:45;;;;;;;6.15;5.55;;;;;;;;;;5073182;28;20510;-80
2022/09/06 06:03:11;;;;;;;6.63;5.40;;;;;;;;;;5072063;28;20712;-79
2022/09/06 06:05:38;;;;;;;8.90;5.75;;;;;;;;;;5071893;28;20132;-79
2022/09/06 06:08:04;;;;;;;8.15;5.35;;;;;;;;;;5067414;28;20085;-80
2022/09/06 06:10:31;;;;;;;9.35;5.63;;;;;;;;;;5074339;28;20035;-77
2022/09/06 06:12:57;;;;;;;6.90;5.70;;;;;;;;;;5068578;28;20024;-80
2022/09/06 06:15:23;;;;;;;7.72;6.13;;;;;;;;;;5070370;28;20560;-77
2022/09/06 06:17:49;;;;;;;10.05;6.25;;;;;;;;;;5071186;28;20127;-77
2022/09/06 06:23:19;;;;;;;36.00;14.63;;;;;;;;;;5067204;28;20086;-78
2022/09/06 06:25:45;;;;;;;13.32;8.27;;;;;;;;;;5068013;28;20399;-78
2022/09/06 06:34:20;;;;;;;27.95;13.02;;;;;;;;;;5072172;28;20059;-78
2022/09/06 06:36:47;;;;;;;18.40;10.05;;;;;;;;;;5076835;28;20020;-78
2022/09/06 06:39:13;;;;;;;18.75;11.32;;;;;;;;;;5074320;28;20028;-77
2022/09/06 06:41:39;;;;;;;28.02;21.80;;;;;;;;;;5077186;28;20527;-77
2022/09/06 06:44:05;;;;;;;45.72;40.22;;;;;;;;;;5071577;28;20029;-77
2022/09/06 06:46:32;;;;;;;21.08;18.75;;;;;;;;;;5088262;28;20024;-76
2022/09/06 06:48:58;;;;;;;17.13;14.98;;;;;;;;;;5071627;28;20566;-77
2022/09/06 06:51:27;;;;;;;16.42;13.43;;;;;;;;;;5069513;28;20020;-78
2022/09/06 06:53:55;;;;;;;27.90;24.15;;;;;;;;;;5090360;28;20024;-78
2022/09/06 06:56:24;;;;;;;20.55;18.35;;;;;;;;;;5076852;28;20173;-77
2022/09/06 06:58:51;;;;;;;18.25;16.35;;;;;;;;;;5074372;28;20040;-80
2022/09/06 07:01:21;;;;;;;16.55;14.88;;;;;;;;;;5054398;28;20032;-79
2022/09/06 07:03:48;;;;;;;12.43;11.15;;;;;;;;;;5066106;28;20025;-77
2022/09/06 07:06:14;;;;;;;10.80;9.70;;;;;;;;;;5070283;28;20550;-77
2022/09/06 07:08:41;;;;;;;37.63;33.55;;;;;;;;;;5067325;28;20108;-77
2022/09/06 07:11:08;;;;;;;21.00;18.88;;;;;;;;;;5072113;28;20503;-77
2022/09/06 07:13:35;;;;;;;16.10;14.43;;;;;;;;;;5069791;28;20032;-77
2022/09/06 07:16:28;;;;;;;11.05;9.88;;;;;;;;;;5074804;28;20141;-77
2022/09/06 07:18:55;;;;;;;10.00;8.43;;;;;;;;;;5068471;28;20041;-77
2022/09/06 07:24:07;;;;;;;7.55;6.68;;;;;;;;;;5065184;28;20062;-77
2022/09/06 07:26:34;;;;;;;7.22;6.43;;;;;;;;;;5072419;28;20066;-77
2022/09/06 07:29:02;;;;;;;7.20;5.95;;;;;;;;;;5065293;28;20036;-77
2022/09/06 07:31:30;;;;;;;7.78;6.53;;;;;;;;;;5091901;28;20103;-77
2022/09/06 07:33:56;;;;;;;8.60;6.75;;;;;;;;;;5091754;28;20031;-75
2022/09/06 07:36:22;;;;;;;7.22;6.55;;;;;;;;;;5080379;28;20031;-76
2022/09/06 07:38:49;;;;;;;10.93;6.93;;;;;;;;;;5070750;28;20059;-77
2022/09/06 07:41:16;;;;;;;41.15;18.70;;;;;;;;;;5075607;28;20059;-77
2022/09/06 07:43:43;;;;;;;52.58;25.17;;;;;;;;;;5071032;28;20025;-78
2022/09/06 07:46:13;;;;;;;45.22;22.83;;;;;;;;;;5062877;28;20033;-77
2022/09/06 07:48:40;;;;;;;44.05;22.30;;;;;;;;;;5069996;28;20051;-76
2022/09/06 07:51:07;;;;;;;39.05;20.05;;;;;;;;;;5069338;28;20025;-77
2022/09/06 07:53:34;;;;;;;34.17;17.65;;;;;;;;;;5061135;28;20064;-76
2022/09/06 07:56:01;;;;;;;37.17;17.75;;;;;;;;;;5071305;28;20090;-76
2022/09/06 07:58:29;;;;;;;40.85;19.85;;;;;;;;;;5070793;28;20074;-77
2022/09/06 08:01:13;;;;;;;54.00;30.73;;;;;;;;;;5071570;28;20078;-77
2022/09/06 08:03:39;;;;;;;58.50;35.15;;;;;;;;;;5069054;28;20063;-77
2022/09/06 08:06:05;;;;;;;27.17;19.00;;;;;;;;;;5071123;28;20027;-76
2022/09/06 08:08:31;;;;;;;47.53;29.67;;;;;;;;;;5064792;28;20124;-78
2022/09/06 08:10:57;;;;;;;48.58;29.05;;;;;;;;;;5084856;28;20231;-76
2022/09/06 08:13:23;;;;;;;39.60;23.25;;;;;;;;;;5064723;28;20400;-77
2022/09/06 08:15:57;;;;;;;41.40;22.48;;;;;;;;;;5073237;28;20488;-76
2022/09/06 08:18:23;;;;;;;43.88;23.42;;;;;;;;;;5071036;28;20036;-76
2022/09/06 08:20:49;;;;;;;31.90;18.83;;;;;;;;;;5084608;28;20036;-77
2022/09/06 08:23:16;;;;;;;11.88;10.77;;;;;;;;;;5069537;28;20127;-79
2022/09/06 08:25:42;;;;;;;26.13;15.52;;;;;;;;;;5067876;28;20498;-77
2022/09/06 08:28:09;;;;;;;19.33;13.70;;;;;;;;;;5069480;28;20032;-78
2022/09/06 08:30:35;;;;;;;21.33;15.10;;;;;;;;;;5070916;28;20115;-79
2022/09/06 08:33:02;;;;;;;25.88;19.00;;;;;;;;;;5071298;28;20106;-77
2022/09/06 08:35:28;;;;;;;22.50;16.98;;;;;;;;;;5069491;28;20028;-81
2022/09/06 08:38:00;;;;;;;19.33;15.25;;;;;;;;;;5072015;28;20033;-78
2022/09/06 08:40:26;;;;;;;16.92;14.30;;;;;;;;;;5067312;28;20025;-78
2022/09/06 08:42:52;;;;;;;16.00;13.23;;;;;;;;;;5073929;28;20029;-78
2022/09/06 08:45:18;;;;;;;16.50;14.00;;;;;;;;;;5071588;28;20055;-79
2022/09/06 08:47:44;;;;;;;15.05;13.55;;;;;;;;;;5086063;28;20099;-78
2022/09/06 08:50:11;;;;;;;14.02;12.52;;;;;;;;;;5091114;28;20078;-78
2022/09/06 08:52:41;;;;;;;13.30;12.10;;;;;;;;;;5090991;28;20804;-77
2022/09/06 08:55:10;;;;;;;12.35;11.15;;;;;;;;;;5090859;28;20545;-78
2022/09/06 08:57:55;;;;;;;13.13;11.90;;;;;;;;;;5091169;28;20024;-81
2022/09/06 09:00:21;;;;;;;12.95;11.75;;;;;;;;;;5080723;28;20082;-78
2022/09/06 09:03:08;;;;;;;12.85;11.65;;;;;;;;;;5069323;28;20020;-83
2022/09/06 09:05:35;;;;;;;13.13;11.80;;;;;;;;;;5070878;28;20044;-79
2022/09/06 09:08:06;;;;;;;12.02;11.02;;;;;;;;;;5065434;28;20021;-78
2022/09/06 09:10:58;;;;;;;12.43;10.80;;;;;;;;;;5068239;28;20506;-79
2022/09/06 09:13:30;;;;;;;17.65;15.82;;;;;;;;;;5067303;28;20044;-77
2022/09/06 09:15:57;;;;;;;28.20;25.30;;;;;;;;;;5068779;28;20052;-78
2022/09/06 09:18:25;;;;;;;18.00;16.30;;;;;;;;;;5068721;28;20115;-78
2022/09/06 09:20:51;;;;;;;15.52;13.80;;;;;;;;;;5062819;28;20028;-78
2022/09/06 09:23:17;;;;;;;14.27;12.85;;;;;;;;;;5070325;28;20103;-78
2022/09/06 09:25:45;;;;;;;14.57;12.35;;;;;;;;;;5069663;28;20792;-77
2022/09/06 09:28:16;;;;;;;12.80;11.52;;;;;;;;;;5069574;28;20021;-78
2022/09/06 09:30:47;;;;;;;12.38;11.07;;;;;;;;;;5066625;28;20021;-77
2022/09/06 09:33:24;;;;;;;12.80;11.18;;;;;;;;;;5070345;28;20016;-76
2022/09/06 09:35:50;;;;;;;10.30;9.05;;;;;;;;;;5063341;28;20052;-79
2022/09/06 09:38:23;;;;;;;10.48;8.95;;;;;;;;;;5069879;28;20050;-77
2022/09/06 09:40:51;;;;;;;11.52;10.52;;;;;;;;;;5072421;28;20036;-78
2022/09/06 09:43:20;;;;;;;11.80;10.75;;;;;;;;;;5056581;28;20033;-77
2022/09/06 09:45:48;;;;;;;11.45;10.35;;;;;;;;;;5064349;28;20024;-77
2022/09/06 09:48:19;;;;;;;10.45;9.43;;;;;;;;;;5068789;28;20020;-76
2022/09/06 09:50:45;;;;;;;10.57;7.38;;;;;;;;;;5065894;28;20039;-78
2022/09/06 09:53:13;;;;;;;9.73;8.82;;;;;;;;;;5071185;28;20036;-77
2022/09/06 09:55:40;;;;;;;8.75;7.95;;;;;;;;;;5068543;28;20090;-78
2022/09/06 09:58:15;;;;;;;8.68;7.88;;;;;;;;;;5068907;28;20082;-77
2022/09/06 10:00:42;;;;;;;10.65;9.07;;;;;;;;;;5061721;28;20032;-77
2022/09/06 10:03:15;;;;;;;8.55;7.68;;;;;;;;;;5066671;28;20039;-78
2022/09/06 10:05:41;;;;;;;8.95;8.20;;;;;;;;;;5071235;28;20553;-78
2022/09/06 10:08:11;;;;;;;8.90;7.90;;;;;;;;;;5072925;28;20024;-79
2022/09/06 10:10:57;;;;;;;8.80;8.00;;;;;;;;;;5072786;28;20028;-78
2022/09/06 10:13:25;;;;;;;7.93;7.05;;;;;;;;;;5069307;28;20037;-77
2022/09/06 10:15:52;;;;;;;7.65;6.85;;;;;;;;;;5073294;28;20041;-77
2022/09/06 10:18:30;;;;;;;7.85;7.10;;;;;;;;;;5072849;28;20032;-79
2022/09/06 10:21:02;;;;;;;8.18;7.47;;;;;;;;;;5071473;28;20028;-76
2022/09/06 10:23:36;;;;;;;9.23;7.05;;;;;;;;;;5069206;28;20059;-77
2022/09/06 10:26:02;;;;;;;7.13;6.53;;;;;;;;;;5065106;28;20020;-77
2022/09/06 10:28:28;;;;;;;7.40;6.70;;;;;;;;;;5072101;28;20487;-78
2022/09/06 10:30:57;;;;;;;8.77;7.85;;;;;;;;;;5072755;28;20081;-78
2022/09/06 10:33:23;;;;;;;8.65;7.55;;;;;;;;;;5073902;28;20028;-78
2022/09/06 10:35:51;;;;;;;8.35;6.78;;;;;;;;;;5073546;28;20535;-76
2022/09/06 10:38:27;;;;;;;8.77;7.32;;;;;;;;;;5073285;28;20032;-76
2022/09/06 10:41:00;;;;;;;7.45;6.78;;;;;;;;;;5074435;28;20439;-77
2022/09/06 10:43:30;;;;;;;7.43;6.72;;;;;;;;;;5072935;28;20035;-77
2022/09/06 10:46:04;;;;;;;8.45;7.60;;;;;;;;;;5071342;28;20053;-77
2022/09/06 10:48:30;;;;;;;;;;;;;;;;;;5071230;28;20083;-78
2022/09/06 10:51:19;;;;;;;8.27;7.25;;;;;;;;;;5072011;28;19912;-78
2022/09/06 10:53:51;;;;;;;9.07;8.32;;;;;;;;;;5072952;28;20032;-76
2022/09/06 10:56:20;;;;;;;7.80;7.00;;;;;;;;;;5073378;28;20020;-76
2022/09/06 10:58:49;;;;;;;7.93;7.22;;;;;;;;;;5072413;28;20467;-77
2022/09/06 11:01:22;;;;;;;10.13;6.55;;;;;;;;;;5073587;28;20032;-77
2022/09/06 11:03:50;;;;;;;7.13;6.53;;;;;;;;;;5073440;28;20476;-77
2022/09/06 11:06:16;;;;;;;7.45;6.75;;;;;;;;;;5073205;28;20084;-76
2022/09/06 11:08:49;;;;;;;9.30;8.25;;;;;;;;;;5072766;28;20479;-77
2022/09/06 11:11:26;;;;;;;7.20;6.50;;;;;;;;;;5072817;28;20025;-77
2022/09/06 11:13:52;;;;;;;9.38;6.88;;;;;;;;;;5073325;28;20489;-77
2022/09/06 11:16:27;;;;;;;8.25;6.97;;;;;;;;;;5086484;28;20082;-78
2022/09/06 11:18:53;;;;;;;8.55;6.35;;;;;;;;;;5090356;28;20051;-76
2022/09/06 11:21:37;;;;;;;9.20;6.55;;;;;;;;;;5085884;28;20021;-77
2022/09/06 11:24:22;;;;;;;8.30;6.18;;;;;;;;;;5084469;28;20024;-76
2022/09/06 11:27:01;;;;;;;14.38;12.98;;;;;;;;;;5093357;28;20048;-77
2022/09/06 11:29:28;;;;;;;7.03;6.32;;;;;;;;;;5090290;28;20028;-77
2022/09/06 11:31:56;;;;;;;6.43;5.82;;;;;;;;;;5091480;28;20024;-77
2022/09/06 11:34:26;;;;;;;7.57;6.80;;;;;;;;;;5090488;28;20032;-78
2022/09/06 11:36:55;;;;;;;7.00;6.40;;;;;;;;;;5087500;28;20036;-77
2022/09/06 11:39:26;;;;;;;9.30;6.07;;;;;;;;;;5083408;28;20177;-77
2022/09/06 11:41:52;;;;;;;9.55;6.15;;;;;;;;;;5093445;28;20020;-77
2022/09/06 11:44:37;;;;;;;7.57;6.28;;;;;;;;;;5091017;28;20031;-78
2022/09/06 11:47:06;;;;;;;9.23;7.68;;;;;;;;;;5092577;28;20120;-79
2022/09/06 11:49:36;;;;;;;7.03;5.95;;;;;;;;;;5092045;28;20026;-76
2022/09/06 11:52:02;;;;;;;12.73;11.55;;;;;;;;;;5092020;28;20020;-77
2022/09/06 11:54:42;;;;;;;5.07;4.55;;;;;;;;;;5092101;28;20066;-76
2022/09/06 11:57:12;;;;;;;8.18;6.30;;;;;;;;;;5089341;28;20509;-76
2022/09/06 11:59:43;;;;;;;4.90;4.50;;;;;;;;;;5079660;28;20050;-76
2022/09/06 12:02:28;;;;;;;6.57;5.85;;;;;;;;;;5098395;28;20413;-77
2022/09/06 12:05:00;;;;;;;7.70;5.63;;;;;;;;;;5102730;28;20027;-77
2022/09/06 12:07:27;;;;;;;4.88;4.45;;;;;;;;;;5091923;28;20058;-78
2022/09/06 12:09:53;;;;;;;5.28;4.88;;;;;;;;;;5089030;28;20050;-77
2022/09/06 12:12:38;;;;;;;7.50;5.47;;;;;;;;;;5091819;28;20028;-77
2022/09/06 12:15:23;;;;;;;4.28;3.88;;;;;;;;;;5103786;28;20036;-77
2022/09/06 12:17:49;;;;;;;4.65;3.75;;;;;;;;;;5088273;28;20044;-78
2022/09/06 12:20:34;;;;;;;7.50;6.85;;;;;;;;;;5092705;28;20066;-76
2022/09/06 12:23:00;;;;;;;4.30;3.88;;;;;;;;;;5091524;28;20032;-76
2022/09/06 12:25:35;;;;;;;23.10;20.67;;;;;;;;;;5092581;28;20017;-76
2022/09/06 12:28:05;;;;;;;5.30;4.80;;;;;;;;;;5088328;28;20043;-77
2022/09/06 12:30:31;;;;;;;5.20;4.72;;;;;;;;;;5085940;28;20106;-76
2022/09/06 12:32:57;;;;;;;5.32;4.82;;;;;;;;;;5091815;28;20116;-77
2022/09/06 12:35:26;;;;;;;4.68;3.90;;;;;;;;;;5088437;28;20478;-77
2022/09/06 12:37:56;;;;;;;4.00;3.63;;;;;;;;;;5090806;28;20024;-77
2022/09/06 12:40:23;;;;;;;5.88;4.70;;;;;;;;;;5096029;28;20023;-78
2022/09/06 12:42:50;;;;;;;4.32;3.72;;;;;;;;;;5093424;28;20103;-77
2022/09/06 12:45:17;;;;;;;3.38;3.08;;;;;;;;;;5086355;28;20040;-77
2022/09/06 12:47:44;;;;;;;4.47;4.07;;;;;;;;;;5090047;28;20024;-78
2022/09/06 12:50:21;;;;;;;9.60;8.65;;;;;;;;;;5086990;28;20115;-76
2022/09/06 12:53:06;;;;;;;55.47;49.65;;;;;;;;;;5087248;28;20027;-77
2022/09/06 12:55:36;;;;;;;8.75;8.00;;;;;;;;;;5086341;28;20016;-77
2022/09/06 12:58:04;;;;;;;5.82;5.00;;;;;;;;;;5089930;28;20035;-77
2022/09/06 13:00:36;;;;;;;5.00;4.20;;;;;;;;;;5090112;28;20701;-77
2022/09/06 13:03:04;;;;;;;4.22;3.75;;;;;;;;;;5092490;28;20039;-78
2022/09/06 13:05:31;;;;;;;4.15;3.10;;;;;;;;;;5086308;28;20027;-77
2022/09/06 13:07:59;;;;;;;5.68;4.60;;;;;;;;;;5086865;28;20055;-77
2022/09/06 13:10:26;;;;;;;4.82;3.67;;;;;;;;;;5088931;28;20019;-76
2022/09/06 13:12:52;;;;;;;4.45;4.05;;;;;;;;;;5088381;28;20039;-78
2022/09/06 13:15:32;;;;;;;3.72;3.38;;;;;;;;;;5072680;28;20051;-78
2022/09/06 13:18:17;;;;;;;3.90;3.60;;;;;;;;;;5092259;28;20409;-78
2022/09/06 13:20:43;;;;;;;4.25;3.35;;;;;;;;;;5087135;28;20047;-76
2022/09/06 13:23:10;;;;;;;3.60;3.22;;;;;;;;;;5090360;28;20028;-78
2022/09/06 13:25:50;;;;;;;4.30;3.50;;;;;;;;;;5090849;28;20386;-78
2022/09/06 13:28:29;;;;;;;3.67;3.38;;;;;;;;;;5092629;28;20379;-77
2022/09/06 13:31:06;;;;;;;4.13;3.72;;;;;;;;;;5092827;28;20482;-76
2022/09/06 13:33:33;;;;;;;3.80;3.50;;;;;;;;;;5092700;28;20372;-76
2022/09/06 13:36:18;;;;;;;10.60;9.55;;;;;;;;;;5089969;28;20158;-76
2022/09/06 13:38:44;;;;;;;4.00;3.63;;;;;;;;;;5081505;28;20190;-76
2022/09/06 13:41:26;;;;;;;5.53;4.70;;;;;;;;;;5083316;28;20178;-76
2022/09/06 13:43:58;;;;;;;4.80;3.97;;;;;;;;;;5095149;28;20075;-76
2022/09/06 13:46:24;;;;;;;5.03;3.83;;;;;;;;;;5096805;28;20462;-76
2022/09/06 13:48:53;;;;;;;5.03;4.18;;;;;;;;;;5096514;28;20028;-76
2022/09/06 13:51:19;;;;;;;6.03;3.83;;;;;;;;;;5096372;28;20113;-76
2022/09/06 13:53:45;;;;;;;4.63;4.18;;;;;;;;;;5096491;28;20020;-77
2022/09/06 13:56:11;;;;;;;4.25;3.85;;;;;;;;;;5094217;28;20032;-77
2022/09/06 13:58:37;;;;;;;4.22;3.83;;;;;;;;;;5084919;28;20024;-77
2022/09/06 14:01:08;;;;;;;4.32;3.90;;;;;;;;;;5091530;28;20020;-76
2022/09/06 14:03:35;;;;;;;4.43;4.00;;;;;;;;;;5094992;28;20368;-77
2022/09/06 14:06:01;;;;;;;4.80;4.40;;;;;;;;;;5095482;28;20085;-77
2022/09/06 14:08:27;;;;;;;4.30;3.90;;;;;;;;;;5095893;28;20025;-76
2022/09/06 14:10:53;;;;;;;5.68;4.45;;;;;;;;;;5096263;28;20428;-76
2022/09/06 14:13:20;;;;;;;4.40;4.00;;;;;;;;;;5096354;28;20052;-76
2022/09/06 14:15:46;;;;;;;4.50;4.10;;;;;;;;;;5095894;28;20051;-77
2022/09/06 14:18:13;;;;;;;4.32;3.92;;;;;;;;;;5095954;28;20027;-77
2022/09/06 14:20:39;;;;;;;4.72;4.32;;;;;;;;;;5095941;28;20067;-78
2022/09/06 14:23:05;;;;;;;5.00;3.80;;;;;;;;;;5095299;28;20442;-77
2022/09/06 14:25:34;;;;;;;4.70;4.30;;;;;;;;;;5096166;28;20386;-77
2022/09/06 14:28:00;;;;;;;4.15;3.75;;;;;;;;;;5094344;28;20433;-76
2022/09/06 14:30:26;;;;;;;4.85;3.83;;;;;;;;;;5086101;28;20073;-76
2022/09/06 14:32:52;;;;;;;4.05;3.70;;;;;;;;;;5095683;28;20031;-76
2022/09/06 14:35:19;;;;;;;4.13;3.72;;;;;;;;;;5095628;28;20013;-77
2022/09/06 14:37:45;;;;;;;4.68;4.20;;;;;;;;;;5095632;28;20042;-77
2022/09/06 14:40:23;;;;;;;4.13;3.83;;;;;;;;;;5095481;28;20063;-77
2022/09/06 14:42:49;;;;;;;7.38;5.43;;;;;;;;;;5095531;28;20028;-76
2022/09/06 14:45:15;;;;;;;4.53;3.83;;;;;;;;;;5094215;28;20456;-76
2022/09/06 14:47:42;;;;;;;4.38;3.45;;;;;;;;;;5095549;28;20016;-77
2022/09/06 14:50:08;;;;;;;3.70;3.38;;;;;;;;;;5092365;28;20044;-76
2022/09/06 14:52:34;;;;;;;5.55;3.90;;;;;;;;;;5092976;28;20051;-77
2022/09/06 14:55:01;;;;;;;4.28;3.85;;;;;;;;;;5093939;28;20035;-77
2022/09/06 14:57:28;;;;;;;4.20;3.67;;;;;;;;;;5091751;28;20024;-77
2022/09/06 14:59:54;;;;;;;3.78;3.38;;;;;;;;;;5093802;28;20032;-77
2022/09/06 15:02:21;;;;;;;3.40;3.10;;;;;;;;;;5095169;28;20062;-77
2022/09/06 15:04:47;;;;;;;3.50;3.20;;;;;;;;;;5095181;28;20368;-77